sensor_id;sensor_type;location;lat;lon;timestamp;temperature;humidity
14099;DHT22;7126;48.458;7.930;2023-06-01T00:01:26;17.50;99.90
14099;DHT22;7126;48.458;7.930;2023-06-01T00:03:52;17.30;99.90
14099;DHT22;7126;48.458;7.930;2023-06-01T00:06:18;17.20;99.90
14099;DHT22;7126;48.458;7.930;2023-06-01T00:08:43;17.20;99.90
14099;DHT22;7126;48.458;7.930;2023-06-01T00:11:09;17.20;99.90
14099;DHT22;7126;48.458;7.930;2023-06-01T00:13:35;17.20;99.90
14099;DHT22;7126;48.458;7.930;2023-06-01T00:16:00;17.20;99.90
14099;DHT22;7126;48.458;7.930;2023-06-01T00:18:26;17.10;99.90
14099;DHT22;7126;48.458;7.930;2023-06-01T00:20:52;17.20;99.90
14099;DHT22;7126;48.458;7.930;2023-06-01T00:23:18;17.20;99.90
14099;DHT22;7126;48.458;7.930;2023-06-01T00:25:45;17.20;99.90
14099;DHT22;7126;48.458;7.930;2023-06-01T00:28:11;17.20;99.90
14099;DHT22;7126;48.458;7.930;2023-06-01T00:30:36;17.10;99.90
14099;DHT22;7126;48.458;7.930;2023-06-01T00:33:02;17.10;99.90
14099;DHT22;7126;48.458;7.930;2023-06-01T00:35:28;17.00;99.90
14099;DHT22;7126;48.458;7.930;2023-06-01T00:37:53;17.10;99.90
14099;DHT22;7126;48.458;7.930;2023-06-01T00:40:19;17.10;99.90
14099;DHT22;7126;48.458;7.930;2023-06-01T00:42:44;17.20;99.90
14099;DHT22;7126;48.458;7.930;2023-06-01T00:45:10;17.10;99.90
14099;DHT22;7126;48.458;7.930;2023-06-01T00:47:40;17.00;99.90
14099;DHT22;7126;48.458;7.930;2023-06-01T00:50:07;16.90;99.90
14099;DHT22;7126;48.458;7.930;2023-06-01T00:52:32;16.80;99.90
14099;DHT22;7126;48.458;7.930;2023-06-01T00:54:58;16.70;99.90
14099;DHT22;7126;48.458;7.930;2023-06-01T00:57:24;16.70;99.90
14099;DHT22;7126;48.458;7.930;2023-06-01T00:59:52;16.70;99.90
14099;DHT22;7126;48.458;7.930;2023-06-01T01:02:18;16.80;99.90
14099;DHT22;7126;48.458;7.930;2023-06-01T01:04:44;16.90;99.90
14099;DHT22;7126;48.458;7.930;2023-06-01T01:07:14;17.00;99.90
14099;DHT22;7126;48.458;7.930;2023-06-01T01:12:33;17.10;99.90
14099;DHT22;7126;48.458;7.930;2023-06-01T01:15:12;17.10;99.90
14099;DHT22;7126;48.458;7.930;2023-06-01T01:17:42;17.10;99.90
14099;DHT22;7126;48.458;7.930;2023-06-01T01:20:13;17.00;99.90
14099;DHT22;7126;48.458;7.930;2023-06-01T01:25:25;16.90;99.90
14099;DHT22;7126;48.458;7.930;2023-06-01T01:30:42;16.80;99.90
14099;DHT22;7126;48.458;7.930;2023-06-01T01:33:10;16.70;99.90
14099;DHT22;7126;48.458;7.930;2023-06-01T01:35:37;16.60;99.90
14099;DHT22;7126;48.458;7.930;2023-06-01T01:38:04;16.50;99.90
14099;DHT22;7126;48.458;7.930;2023-06-01T01:40:29;16.50;99.90
14099;DHT22;7126;48.458;7.930;2023-06-01T01:42:55;16.40;99.90
14099;DHT22;7126;48.458;7.930;2023-06-01T01:45:22;16.40;99.90
14099;DHT22;7126;48.458;7.930;2023-06-01T01:48:10;16.40;99.90
14099;DHT22;7126;48.458;7.930;2023-06-01T01:50:41;16.40;99.90
14099;DHT22;7126;48.458;7.930;2023-06-01T01:53:10;16.50;99.90
14099;DHT22;7126;48.458;7.930;2023-06-01T01:55:36;16.60;99.90
14099;DHT22;7126;48.458;7.930;2023-06-01T01:58:02;16.60;99.90
14099;DHT22;7126;48.458;7.930;2023-06-01T02:00:29;16.60;99.90
14099;DHT22;7126;48.458;7.930;2023-06-01T02:02:55;16.40;99.90
14099;DHT22;7126;48.458;7.930;2023-06-01T02:05:21;16.40;99.90
14099;DHT22;7126;48.458;7.930;2023-06-01T02:07:47;16.30;99.90
14099;DHT22;7126;48.458;7.930;2023-06-01T02:10:12;16.20;99.90
14099;DHT22;7126;48.458;7.930;2023-06-01T02:12:38;16.30;99.90
14099;DHT22;7126;48.458;7.930;2023-06-01T02:15:05;16.30;99.90
14099;DHT22;7126;48.458;7.930;2023-06-01T02:17:31;16.30;99.90
14099;DHT22;7126;48.458;7.930;2023-06-01T02:19:58;16.20;99.90
14099;DHT22;7126;48.458;7.930;2023-06-01T02:22:23;16.20;99.90
14099;DHT22;7126;48.458;7.930;2023-06-01T02:24:49;16.20;99.90
14099;DHT22;7126;48.458;7.930;2023-06-01T02:27:15;16.10;99.90
14099;DHT22;7126;48.458;7.930;2023-06-01T02:29:41;16.00;99.90
14099;DHT22;7126;48.458;7.930;2023-06-01T02:32:07;16.10;99.90
14099;DHT22;7126;48.458;7.930;2023-06-01T02:34:32;16.20;99.90
14099;DHT22;7126;48.458;7.930;2023-06-01T02:36:58;16.20;99.90
14099;DHT22;7126;48.458;7.930;2023-06-01T02:39:23;16.20;99.90
14099;DHT22;7126;48.458;7.930;2023-06-01T02:41:49;16.30;99.90
14099;DHT22;7126;48.458;7.930;2023-06-01T02:44:15;16.30;99.90
14099;DHT22;7126;48.458;7.930;2023-06-01T02:46:40;16.20;99.90
14099;DHT22;7126;48.458;7.930;2023-06-01T02:49:06;16.20;99.90
14099;DHT22;7126;48.458;7.930;2023-06-01T02:51:31;16.10;99.90
14099;DHT22;7126;48.458;7.930;2023-06-01T02:53:58;16.10;99.90
14099;DHT22;7126;48.458;7.930;2023-06-01T02:56:24;16.00;99.90
14099;DHT22;7126;48.458;7.930;2023-06-01T02:58:50;16.00;99.90
14099;DHT22;7126;48.458;7.930;2023-06-01T03:01:16;15.90;99.90
14099;DHT22;7126;48.458;7.930;2023-06-01T03:03:42;15.80;99.90
14099;DHT22;7126;48.458;7.930;2023-06-01T03:06:08;15.70;99.90
14099;DHT22;7126;48.458;7.930;2023-06-01T03:08:34;15.60;99.90
14099;DHT22;7126;48.458;7.930;2023-06-01T03:11:00;15.60;99.90
14099;DHT22;7126;48.458;7.930;2023-06-01T03:13:26;15.50;99.90
14099;DHT22;7126;48.458;7.930;2023-06-01T03:15:52;15.40;99.90
14099;DHT22;7126;48.458;7.930;2023-06-01T03:18:17;15.40;99.90
14099;DHT22;7126;48.458;7.930;2023-06-01T03:20:43;15.40;99.90
14099;DHT22;7126;48.458;7.930;2023-06-01T03:23:08;15.10;99.90
14099;DHT22;7126;48.458;7.930;2023-06-01T03:25:34;15.10;99.90
14099;DHT22;7126;48.458;7.930;2023-06-01T03:28:00;15.00;99.90
14099;DHT22;7126;48.458;7.930;2023-06-01T03:30:25;15.00;99.90
14099;DHT22;7126;48.458;7.930;2023-06-01T03:32:51;14.90;99.90
14099;DHT22;7126;48.458;7.930;2023-06-01T03:35:17;15.00;99.90
14099;DHT22;7126;48.458;7.930;2023-06-01T03:37:44;15.00;99.90
14099;DHT22;7126;48.458;7.930;2023-06-01T03:40:10;14.90;99.90
14099;DHT22;7126;48.458;7.930;2023-06-01T03:42:40;15.00;99.90
14099;DHT22;7126;48.458;7.930;2023-06-01T03:45:07;15.00;99.90
14099;DHT22;7126;48.458;7.930;2023-06-01T03:47:33;15.10;99.90
14099;DHT22;7126;48.458;7.930;2023-06-01T03:49:59;15.00;99.90
14099;DHT22;7126;48.458;7.930;2023-06-01T03:52:26;15.00;99.90
14099;DHT22;7126;48.458;7.930;2023-06-01T03:54:52;15.00;99.90
14099;DHT22;7126;48.458;7.930;2023-06-01T03:57:18;15.00;99.90
14099;DHT22;7126;48.458;7.930;2023-06-01T03:59:44;14.90;99.90
14099;DHT22;7126;48.458;7.930;2023-06-01T04:02:10;14.90;99.90
14099;DHT22;7126;48.458;7.930;2023-06-01T04:04:35;14.80;99.90
14099;DHT22;7126;48.458;7.930;2023-06-01T04:07:02;14.80;99.90
14099;DHT22;7126;48.458;7.930;2023-06-01T04:09:29;14.80;99.90
14099;DHT22;7126;48.458;7.930;2023-06-01T04:11:55;14.80;99.90
14099;DHT22;7126;48.458;7.930;2023-06-01T04:14:20;14.80;99.90
14099;DHT22;7126;48.458;7.930;2023-06-01T04:16:46;14.80;99.90
14099;DHT22;7126;48.458;7.930;2023-06-01T04:19:12;14.90;99.90
14099;DHT22;7126;48.458;7.930;2023-06-01T04:21:37;14.90;99.90
14099;DHT22;7126;48.458;7.930;2023-06-01T04:24:03;14.90;99.90
14099;DHT22;7126;48.458;7.930;2023-06-01T04:26:29;15.00;99.90
14099;DHT22;7126;48.458;7.930;2023-06-01T04:28:57;15.00;99.90
14099;DHT22;7126;48.458;7.930;2023-06-01T04:31:24;15.00;99.90
14099;DHT22;7126;48.458;7.930;2023-06-01T04:33:49;15.00;99.90
14099;DHT22;7126;48.458;7.930;2023-06-01T04:36:24;15.10;99.90
14099;DHT22;7126;48.458;7.930;2023-06-01T04:38:50;15.10;99.90
14099;DHT22;7126;48.458;7.930;2023-06-01T04:41:23;15.10;99.90
14099;DHT22;7126;48.458;7.930;2023-06-01T04:43:52;15.10;99.90
14099;DHT22;7126;48.458;7.930;2023-06-01T04:46:22;15.10;99.90
14099;DHT22;7126;48.458;7.930;2023-06-01T04:48:49;15.10;99.90
14099;DHT22;7126;48.458;7.930;2023-06-01T04:51:17;15.20;99.90
14099;DHT22;7126;48.458;7.930;2023-06-01T04:53:46;15.30;99.90
14099;DHT22;7126;48.458;7.930;2023-06-01T04:56:18;15.40;99.90
14099;DHT22;7126;48.458;7.930;2023-06-01T04:58:45;15.40;99.90
14099;DHT22;7126;48.458;7.930;2023-06-01T05:01:13;15.50;99.90
14099;DHT22;7126;48.458;7.930;2023-06-01T05:03:42;15.50;99.90
14099;DHT22;7126;48.458;7.930;2023-06-01T05:06:09;15.50;99.90
14099;DHT22;7126;48.458;7.930;2023-06-01T05:08:37;15.40;99.90
14099;DHT22;7126;48.458;7.930;2023-06-01T05:11:02;15.50;99.90
14099;DHT22;7126;48.458;7.930;2023-06-01T05:13:28;15.50;99.90
14099;DHT22;7126;48.458;7.930;2023-06-01T05:15:53;15.50;99.90
14099;DHT22;7126;48.458;7.930;2023-06-01T05:18:19;15.50;99.90
14099;DHT22;7126;48.458;7.930;2023-06-01T05:20:45;15.50;99.90
14099;DHT22;7126;48.458;7.930;2023-06-01T05:23:11;15.60;99.90
14099;DHT22;7126;48.458;7.930;2023-06-01T05:25:36;15.60;99.90
14099;DHT22;7126;48.458;7.930;2023-06-01T05:28:02;15.60;99.90
14099;DHT22;7126;48.458;7.930;2023-06-01T05:30:27;15.70;99.90
14099;DHT22;7126;48.458;7.930;2023-06-01T05:32:53;15.80;99.90
14099;DHT22;7126;48.458;7.930;2023-06-01T05:35:19;15.80;99.90
14099;DHT22;7126;48.458;7.930;2023-06-01T05:37:45;15.80;99.90
14099;DHT22;7126;48.458;7.930;2023-06-01T05:40:11;15.90;99.90
14099;DHT22;7126;48.458;7.930;2023-06-01T05:42:36;16.00;99.90
14099;DHT22;7126;48.458;7.930;2023-06-01T05:45:02;16.10;99.90
14099;DHT22;7126;48.458;7.930;2023-06-01T05:47:28;16.20;99.90
14099;DHT22;7126;48.458;7.930;2023-06-01T05:49:53;16.30;99.90
14099;DHT22;7126;48.458;7.930;2023-06-01T05:52:19;16.40;99.90
14099;DHT22;7126;48.458;7.930;2023-06-01T05:54:45;16.40;99.90
14099;DHT22;7126;48.458;7.930;2023-06-01T05:57:10;16.50;99.90
14099;DHT22;7126;48.458;7.930;2023-06-01T05:59:36;16.60;99.90
14099;DHT22;7126;48.458;7.930;2023-06-01T06:02:01;16.70;99.90
14099;DHT22;7126;48.458;7.930;2023-06-01T06:04:27;16.70;99.90
14099;DHT22;7126;48.458;7.930;2023-06-01T06:06:52;16.80;99.90
14099;DHT22;7126;48.458;7.930;2023-06-01T06:09:18;16.90;99.90
14099;DHT22;7126;48.458;7.930;2023-06-01T06:11:44;16.90;99.90
14099;DHT22;7126;48.458;7.930;2023-06-01T06:14:09;16.90;99.90
14099;DHT22;7126;48.458;7.930;2023-06-01T06:16:37;17.00;99.90
14099;DHT22;7126;48.458;7.930;2023-06-01T06:19:02;17.10;99.90
14099;DHT22;7126;48.458;7.930;2023-06-01T06:21:28;17.20;99.90
14099;DHT22;7126;48.458;7.930;2023-06-01T06:23:53;17.30;99.90
14099;DHT22;7126;48.458;7.930;2023-06-01T06:26:24;17.40;99.90
14099;DHT22;7126;48.458;7.930;2023-06-01T06:28:51;17.50;99.90
14099;DHT22;7126;48.458;7.930;2023-06-01T06:31:17;17.60;99.90
14099;DHT22;7126;48.458;7.930;2023-06-01T06:33:42;17.60;99.90
14099;DHT22;7126;48.458;7.930;2023-06-01T06:36:08;17.70;99.90
14099;DHT22;7126;48.458;7.930;2023-06-01T06:38:33;17.80;99.90
14099;DHT22;7126;48.458;7.930;2023-06-01T06:40:59;17.90;99.90
14099;DHT22;7126;48.458;7.930;2023-06-01T06:43:25;17.90;99.90
14099;DHT22;7126;48.458;7.930;2023-06-01T06:45:51;18.00;99.90
14099;DHT22;7126;48.458;7.930;2023-06-01T06:48:16;18.10;99.90
14099;DHT22;7126;48.458;7.930;2023-06-01T06:50:42;18.10;99.90
14099;DHT22;7126;48.458;7.930;2023-06-01T06:53:10;18.20;99.90
14099;DHT22;7126;48.458;7.930;2023-06-01T06:55:35;18.20;99.90
14099;DHT22;7126;48.458;7.930;2023-06-01T06:58:01;18.30;99.90
14099;DHT22;7126;48.458;7.930;2023-06-01T07:00:27;18.40;99.90
14099;DHT22;7126;48.458;7.930;2023-06-01T07:02:52;18.50;99.90
14099;DHT22;7126;48.458;7.930;2023-06-01T07:05:18;18.60;99.90
14099;DHT22;7126;48.458;7.930;2023-06-01T07:07:43;18.70;99.90
14099;DHT22;7126;48.458;7.930;2023-06-01T07:10:10;18.80;99.90
14099;DHT22;7126;48.458;7.930;2023-06-01T07:12:36;18.90;99.90
14099;DHT22;7126;48.458;7.930;2023-06-01T07:15:02;19.00;99.90
14099;DHT22;7126;48.458;7.930;2023-06-01T07:17:27;19.00;99.90
14099;DHT22;7126;48.458;7.930;2023-06-01T07:19:53;19.10;99.90
14099;DHT22;7126;48.458;7.930;2023-06-01T07:22:19;19.10;99.90
14099;DHT22;7126;48.458;7.930;2023-06-01T07:24:46;19.30;99.90
14099;DHT22;7126;48.458;7.930;2023-06-01T07:27:13;19.40;99.90
14099;DHT22;7126;48.458;7.930;2023-06-01T07:29:39;19.50;99.90
14099;DHT22;7126;48.458;7.930;2023-06-01T07:32:05;19.60;99.90
14099;DHT22;7126;48.458;7.930;2023-06-01T07:34:31;19.70;99.90
14099;DHT22;7126;48.458;7.930;2023-06-01T07:36:59;19.80;99.90
14099;DHT22;7126;48.458;7.930;2023-06-01T07:39:25;19.90;99.90
14099;DHT22;7126;48.458;7.930;2023-06-01T07:41:51;20.00;99.90
14099;DHT22;7126;48.458;7.930;2023-06-01T07:44:21;20.10;99.90
14099;DHT22;7126;48.458;7.930;2023-06-01T07:46:47;20.20;99.90
14099;DHT22;7126;48.458;7.930;2023-06-01T07:49:13;20.30;99.90
14099;DHT22;7126;48.458;7.930;2023-06-01T07:51:42;20.40;99.90
14099;DHT22;7126;48.458;7.930;2023-06-01T07:54:08;20.60;99.90
14099;DHT22;7126;48.458;7.930;2023-06-01T07:56:34;20.60;99.90
14099;DHT22;7126;48.458;7.930;2023-06-01T07:59:01;20.80;99.90
14099;DHT22;7126;48.458;7.930;2023-06-01T08:01:26;20.90;99.90
14099;DHT22;7126;48.458;7.930;2023-06-01T08:03:52;21.00;99.90
14099;DHT22;7126;48.458;7.930;2023-06-01T08:06:18;21.10;99.90
14099;DHT22;7126;48.458;7.930;2023-06-01T08:08:48;21.20;99.90
14099;DHT22;7126;48.458;7.930;2023-06-01T08:11:17;21.30;99.90
14099;DHT22;7126;48.458;7.930;2023-06-01T08:13:44;21.50;99.90
14099;DHT22;7126;48.458;7.930;2023-06-01T08:16:14;21.60;99.90
14099;DHT22;7126;48.458;7.930;2023-06-01T08:18:40;21.70;99.90
14099;DHT22;7126;48.458;7.930;2023-06-01T08:21:05;21.80;99.90
14099;DHT22;7126;48.458;7.930;2023-06-01T08:23:34;21.90;99.90
14099;DHT22;7126;48.458;7.930;2023-06-01T08:26:00;22.00;99.90
14099;DHT22;7126;48.458;7.930;2023-06-01T08:28:26;22.10;99.90
14099;DHT22;7126;48.458;7.930;2023-06-01T08:30:51;22.20;99.90
14099;DHT22;7126;48.458;7.930;2023-06-01T08:33:17;22.40;99.90
14099;DHT22;7126;48.458;7.930;2023-06-01T08:35:42;22.50;99.90
14099;DHT22;7126;48.458;7.930;2023-06-01T08:38:08;22.70;99.90
14099;DHT22;7126;48.458;7.930;2023-06-01T08:40:33;22.80;99.90
14099;DHT22;7126;48.458;7.930;2023-06-01T08:43:13;22.90;99.90
14099;DHT22;7126;48.458;7.930;2023-06-01T08:45:43;23.10;99.90
14099;DHT22;7126;48.458;7.930;2023-06-01T08:48:14;23.20;99.90
14099;DHT22;7126;48.458;7.930;2023-06-01T08:50:40;23.30;99.90
14099;DHT22;7126;48.458;7.930;2023-06-01T08:53:06;23.40;99.90
14099;DHT22;7126;48.458;7.930;2023-06-01T08:55:32;23.60;99.90
14099;DHT22;7126;48.458;7.930;2023-06-01T08:57:58;23.70;99.90
14099;DHT22;7126;48.458;7.930;2023-06-01T09:00:24;23.80;99.90
14099;DHT22;7126;48.458;7.930;2023-06-01T09:02:49;24.00;99.90
14099;DHT22;7126;48.458;7.930;2023-06-01T09:05:15;24.10;99.90
14099;DHT22;7126;48.458;7.930;2023-06-01T09:07:42;24.20;99.90
14099;DHT22;7126;48.458;7.930;2023-06-01T09:10:08;24.40;99.90
14099;DHT22;7126;48.458;7.930;2023-06-01T09:12:34;24.50;99.90
14099;DHT22;7126;48.458;7.930;2023-06-01T09:15:12;24.60;99.90
14099;DHT22;7126;48.458;7.930;2023-06-01T09:17:43;24.70;99.90
14099;DHT22;7126;48.458;7.930;2023-06-01T09:20:25;24.90;99.90
14099;DHT22;7126;48.458;7.930;2023-06-01T09:22:52;25.00;99.90
14099;DHT22;7126;48.458;7.930;2023-06-01T09:25:26;25.20;99.90
14099;DHT22;7126;48.458;7.930;2023-06-01T09:27:54;25.30;99.90
14099;DHT22;7126;48.458;7.930;2023-06-01T09:30:21;25.50;99.90
14099;DHT22;7126;48.458;7.930;2023-06-01T09:32:48;25.60;99.90
14099;DHT22;7126;48.458;7.930;2023-06-01T09:35:39;25.80;99.90
14099;DHT22;7126;48.458;7.930;2023-06-01T09:38:05;25.90;99.90
14099;DHT22;7126;48.458;7.930;2023-06-01T09:40:32;26.10;99.90
14099;DHT22;7126;48.458;7.930;2023-06-01T09:42:59;26.20;99.90
14099;DHT22;7126;48.458;7.930;2023-06-01T09:45:25;26.40;99.90
14099;DHT22;7126;48.458;7.930;2023-06-01T09:47:51;26.50;99.80
14099;DHT22;7126;48.458;7.930;2023-06-01T09:50:34;26.60;99.60
14099;DHT22;7126;48.458;7.930;2023-06-01T09:53:00;26.60;99.50
14099;DHT22;7126;48.458;7.930;2023-06-01T09:55:26;26.70;99.80
14099;DHT22;7126;48.458;7.930;2023-06-01T09:57:52;26.80;99.90
14099;DHT22;7126;48.458;7.930;2023-06-01T10:00:24;26.90;99.90
14099;DHT22;7126;48.458;7.930;2023-06-01T10:02:52;27.10;99.80
14099;DHT22;7126;48.458;7.930;2023-06-01T10:05:18;27.20;99.40
14099;DHT22;7126;48.458;7.930;2023-06-01T10:07:44;27.30;98.60
14099;DHT22;7126;48.458;7.930;2023-06-01T10:10:14;27.30;97.40
14099;DHT22;7126;48.458;7.930;2023-06-01T10:12:40;27.40;98.30
14099;DHT22;7126;48.458;7.930;2023-06-01T10:15:06;27.60;98.60
14099;DHT22;7126;48.458;7.930;2023-06-01T10:17:34;27.60;98.20
14099;DHT22;7126;48.458;7.930;2023-06-01T10:20:01;27.70;97.00
14099;DHT22;7126;48.458;7.930;2023-06-01T10:22:29;27.70;97.50
14099;DHT22;7126;48.458;7.930;2023-06-01T10:24:56;27.70;97.40
14099;DHT22;7126;48.458;7.930;2023-06-01T10:27:33;27.90;97.80
14099;DHT22;7126;48.458;7.930;2023-06-01T10:30:00;27.90;97.20
14099;DHT22;7126;48.458;7.930;2023-06-01T10:32:46;28.00;97.00
14099;DHT22;7126;48.458;7.930;2023-06-01T10:43:05;28.50;96.30
14099;DHT22;7126;48.458;7.930;2023-06-01T10:48:08;28.70;95.00
14099;DHT22;7126;48.458;7.930;2023-06-01T10:50:36;28.80;94.70
14099;DHT22;7126;48.458;7.930;2023-06-01T10:53:28;28.80;94.60
14099;DHT22;7126;48.458;7.930;2023-06-01T10:56:20;28.70;94.40
14099;DHT22;7126;48.458;7.930;2023-06-01T11:01:36;28.90;95.00
14099;DHT22;7126;48.458;7.930;2023-06-01T11:04:02;29.20;94.80
14099;DHT22;7126;48.458;7.930;2023-06-01T11:06:32;29.30;94.40
14099;DHT22;7126;48.458;7.930;2023-06-01T11:09:02;29.30;94.70
14099;DHT22;7126;48.458;7.930;2023-06-01T11:14:22;29.60;92.80
14099;DHT22;7126;48.458;7.930;2023-06-01T11:16:49;29.60;92.50
14099;DHT22;7126;48.458;7.930;2023-06-01T11:19:23;29.60;92.60
14099;DHT22;7126;48.458;7.930;2023-06-01T11:21:57;29.70;91.50
14099;DHT22;7126;48.458;7.930;2023-06-01T11:24:35;29.80;91.40
14099;DHT22;7126;48.458;7.930;2023-06-01T11:27:09;29.90;92.20
14099;DHT22;7126;48.458;7.930;2023-06-01T11:29:35;30.10;91.90
14099;DHT22;7126;48.458;7.930;2023-06-01T11:32:03;30.10;91.00
14099;DHT22;7126;48.458;7.930;2023-06-01T11:34:34;30.20;91.50
14099;DHT22;7126;48.458;7.930;2023-06-01T11:37:00;30.30;89.00
14099;DHT22;7126;48.458;7.930;2023-06-01T11:39:27;30.40;89.40
14099;DHT22;7126;48.458;7.930;2023-06-01T11:42:10;30.50;87.80
14099;DHT22;7126;48.458;7.930;2023-06-01T11:44:41;30.50;87.60
14099;DHT22;7126;48.458;7.930;2023-06-01T11:47:08;30.50;87.40
14099;DHT22;7126;48.458;7.930;2023-06-01T11:49:48;30.60;82.40
14099;DHT22;7126;48.458;7.930;2023-06-01T11:52:15;30.60;86.30
14099;DHT22;7126;48.458;7.930;2023-06-01T11:54:40;30.80;88.60
14099;DHT22;7126;48.458;7.930;2023-06-01T11:57:07;30.90;85.90
14099;DHT22;7126;48.458;7.930;2023-06-01T11:59:46;31.00;86.00
14099;DHT22;7126;48.458;7.930;2023-06-01T12:02:18;31.10;85.20
14099;DHT22;7126;48.458;7.930;2023-06-01T12:05:03;31.20;83.00
14099;DHT22;7126;48.458;7.930;2023-06-01T12:07:50;31.20;82.40
14099;DHT22;7126;48.458;7.930;2023-06-01T12:10:20;31.30;80.40
14099;DHT22;7126;48.458;7.930;2023-06-01T12:12:46;31.10;80.40
14099;DHT22;7126;48.458;7.930;2023-06-01T12:15:17;31.10;82.00
14099;DHT22;7126;48.458;7.930;2023-06-01T12:17:51;31.20;78.80
14099;DHT22;7126;48.458;7.930;2023-06-01T12:20:37;31.30;79.70
14099;DHT22;7126;48.458;7.930;2023-06-01T12:23:14;31.30;81.40
14099;DHT22;7126;48.458;7.930;2023-06-01T12:25:52;31.30;81.40
14099;DHT22;7126;48.458;7.930;2023-06-01T12:28:19;31.30;80.00
14099;DHT22;7126;48.458;7.930;2023-06-01T12:30:45;31.20;76.30
14099;DHT22;7126;48.458;7.930;2023-06-01T12:33:34;31.30;78.00
14099;DHT22;7126;48.458;7.930;2023-06-01T12:36:01;31.30;81.10
14099;DHT22;7126;48.458;7.930;2023-06-01T12:38:27;31.30;79.50
14099;DHT22;7126;48.458;7.930;2023-06-01T12:41:11;31.30;77.80
14099;DHT22;7126;48.458;7.930;2023-06-01T12:43:38;31.30;78.30
14099;DHT22;7126;48.458;7.930;2023-06-01T12:46:04;31.40;77.80
14099;DHT22;7126;48.458;7.930;2023-06-01T12:48:34;31.40;78.00
14099;DHT22;7126;48.458;7.930;2023-06-01T12:51:00;31.50;76.60
14099;DHT22;7126;48.458;7.930;2023-06-01T12:53:27;31.50;77.80
14099;DHT22;7126;48.458;7.930;2023-06-01T12:55:53;31.50;79.20
14099;DHT22;7126;48.458;7.930;2023-06-01T12:58:19;31.60;80.40
14099;DHT22;7126;48.458;7.930;2023-06-01T13:00:44;31.60;78.60
14099;DHT22;7126;48.458;7.930;2023-06-01T13:03:10;31.70;79.20
14099;DHT22;7126;48.458;7.930;2023-06-01T13:05:35;31.60;80.20
14099;DHT22;7126;48.458;7.930;2023-06-01T13:08:01;31.70;80.60
14099;DHT22;7126;48.458;7.930;2023-06-01T13:10:28;31.70;79.40
14099;DHT22;7126;48.458;7.930;2023-06-01T13:12:54;31.60;78.40
14099;DHT22;7126;48.458;7.930;2023-06-01T13:15:21;31.50;78.40
14099;DHT22;7126;48.458;7.930;2023-06-01T13:17:46;31.50;78.60
14099;DHT22;7126;48.458;7.930;2023-06-01T13:20:12;31.50;79.60
14099;DHT22;7126;48.458;7.930;2023-06-01T13:22:42;31.50;78.70
14099;DHT22;7126;48.458;7.930;2023-06-01T13:25:08;31.40;77.60
14099;DHT22;7126;48.458;7.930;2023-06-01T13:27:34;31.40;77.10
14099;DHT22;7126;48.458;7.930;2023-06-01T13:30:00;31.40;77.50
14099;DHT22;7126;48.458;7.930;2023-06-01T13:32:26;31.40;76.50
14099;DHT22;7126;48.458;7.930;2023-06-01T13:34:52;31.40;78.20
14099;DHT22;7126;48.458;7.930;2023-06-01T13:37:18;31.40;77.60
14099;DHT22;7126;48.458;7.930;2023-06-01T13:39:43;31.30;77.80
14099;DHT22;7126;48.458;7.930;2023-06-01T13:42:09;31.30;77.90
14099;DHT22;7126;48.458;7.930;2023-06-01T13:44:35;31.30;78.50
14099;DHT22;7126;48.458;7.930;2023-06-01T13:47:00;31.40;79.40
14099;DHT22;7126;48.458;7.930;2023-06-01T13:49:27;31.50;77.20
14099;DHT22;7126;48.458;7.930;2023-06-01T13:51:52;31.50;76.80
14099;DHT22;7126;48.458;7.930;2023-06-01T13:54:18;31.40;76.90
14099;DHT22;7126;48.458;7.930;2023-06-01T13:56:44;31.40;76.90
14099;DHT22;7126;48.458;7.930;2023-06-01T13:59:09;31.40;77.80
14099;DHT22;7126;48.458;7.930;2023-06-01T14:01:35;31.40;77.70
14099;DHT22;7126;48.458;7.930;2023-06-01T14:04:01;31.30;77.20
14099;DHT22;7126;48.458;7.930;2023-06-01T14:06:27;31.30;76.10
14099;DHT22;7126;48.458;7.930;2023-06-01T14:08:52;31.30;77.30
14099;DHT22;7126;48.458;7.930;2023-06-01T14:11:18;31.30;77.00
14099;DHT22;7126;48.458;7.930;2023-06-01T14:13:43;31.40;77.10
14099;DHT22;7126;48.458;7.930;2023-06-01T14:16:09;31.40;76.30
14099;DHT22;7126;48.458;7.930;2023-06-01T14:18:35;31.30;76.90
14099;DHT22;7126;48.458;7.930;2023-06-01T14:21:00;31.30;77.20
14099;DHT22;7126;48.458;7.930;2023-06-01T14:23:26;31.30;75.80
14099;DHT22;7126;48.458;7.930;2023-06-01T14:25:51;31.40;78.10
14099;DHT22;7126;48.458;7.930;2023-06-01T14:28:17;31.40;75.20
14099;DHT22;7126;48.458;7.930;2023-06-01T14:30:42;31.40;76.40
14099;DHT22;7126;48.458;7.930;2023-06-01T14:33:08;31.40;76.10
14099;DHT22;7126;48.458;7.930;2023-06-01T14:35:34;31.40;73.60
14099;DHT22;7126;48.458;7.930;2023-06-01T14:38:00;31.40;74.80
14099;DHT22;7126;48.458;7.930;2023-06-01T14:40:25;31.40;75.90
14099;DHT22;7126;48.458;7.930;2023-06-01T14:42:51;31.40;76.00
14099;DHT22;7126;48.458;7.930;2023-06-01T14:45:17;31.30;75.10
14099;DHT22;7126;48.458;7.930;2023-06-01T14:47:44;31.30;75.90
14099;DHT22;7126;48.458;7.930;2023-06-01T14:50:10;31.30;75.70
14099;DHT22;7126;48.458;7.930;2023-06-01T14:52:36;31.30;74.60
14099;DHT22;7126;48.458;7.930;2023-06-01T14:55:02;31.30;73.90
14099;DHT22;7126;48.458;7.930;2023-06-01T14:57:27;31.20;74.40
14099;DHT22;7126;48.458;7.930;2023-06-01T14:59:53;31.20;74.20
14099;DHT22;7126;48.458;7.930;2023-06-01T15:02:18;31.10;74.60
14099;DHT22;7126;48.458;7.930;2023-06-01T15:04:44;31.10;74.30
14099;DHT22;7126;48.458;7.930;2023-06-01T15:07:10;31.10;75.20
14099;DHT22;7126;48.458;7.930;2023-06-01T15:09:36;31.10;73.70
14099;DHT22;7126;48.458;7.930;2023-06-01T15:12:01;31.10;73.00
14099;DHT22;7126;48.458;7.930;2023-06-01T15:14:28;30.90;73.70
14099;DHT22;7126;48.458;7.930;2023-06-01T15:16:53;30.90;73.60
14099;DHT22;7126;48.458;7.930;2023-06-01T15:19:19;30.80;73.40
14099;DHT22;7126;48.458;7.930;2023-06-01T15:21:45;30.80;73.80
14099;DHT22;7126;48.458;7.930;2023-06-01T15:24:10;30.70;72.40
14099;DHT22;7126;48.458;7.930;2023-06-01T15:26:36;30.60;71.40
14099;DHT22;7126;48.458;7.930;2023-06-01T15:29:02;30.60;73.40
14099;DHT22;7126;48.458;7.930;2023-06-01T15:31:28;30.60;72.00
14099;DHT22;7126;48.458;7.930;2023-06-01T15:33:53;30.50;72.60
14099;DHT22;7126;48.458;7.930;2023-06-01T15:36:19;30.50;71.30
14099;DHT22;7126;48.458;7.930;2023-06-01T15:38:45;30.50;72.10
14099;DHT22;7126;48.458;7.930;2023-06-01T15:41:11;30.50;73.60
14099;DHT22;7126;48.458;7.930;2023-06-01T15:43:36;30.40;72.30
14099;DHT22;7126;48.458;7.930;2023-06-01T15:46:05;30.30;72.10
14099;DHT22;7126;48.458;7.930;2023-06-01T15:48:31;30.20;72.60
14099;DHT22;7126;48.458;7.930;2023-06-01T15:50:57;30.10;72.50
14099;DHT22;7126;48.458;7.930;2023-06-01T15:53:23;30.10;72.50
14099;DHT22;7126;48.458;7.930;2023-06-01T15:55:48;30.00;72.90
14099;DHT22;7126;48.458;7.930;2023-06-01T15:58:14;30.00;72.10
14099;DHT22;7126;48.458;7.930;2023-06-01T16:00:40;29.90;72.30
14099;DHT22;7126;48.458;7.930;2023-06-01T16:03:05;29.90;72.40
14099;DHT22;7126;48.458;7.930;2023-06-01T16:05:31;29.80;72.20
14099;DHT22;7126;48.458;7.930;2023-06-01T16:07:57;29.70;72.80
14099;DHT22;7126;48.458;7.930;2023-06-01T16:10:23;29.50;72.80